createdAt,value
2023-01-09T00:01:42.061Z,35.50
2023-01-09T00:04:09.975Z,34.50
2023-01-09T00:06:37.519Z,35.70
2023-01-09T00:09:04.793Z,35.10
2023-01-09T00:11:32.264Z,36.10
2023-01-09T00:13:59.697Z,35.00
2023-01-09T00:16:26.912Z,36.40
2023-01-09T00:18:54.868Z,35.00
2023-01-09T00:21:22.569Z,34.60
2023-01-09T00:23:50.169Z,34.60
2023-01-09T00:26:20.131Z,36.40
2023-01-09T00:28:48.110Z,34.70
2023-01-09T00:31:15.898Z,34.80
2023-01-09T00:33:45.987Z,33.70
2023-01-09T00:36:13.950Z,34.40
2023-01-09T00:38:41.425Z,33.30
2023-01-09T00:41:11.940Z,34.70
2023-01-09T00:43:42.663Z,35.20
2023-01-09T00:46:10.789Z,34.50
2023-01-09T00:48:41.459Z,33.30
2023-01-09T00:51:09.582Z,33.00
2023-01-09T00:53:40.229Z,34.20
2023-01-09T00:56:12.650Z,33.70
2023-01-09T00:58:40.354Z,33.80
2023-01-09T01:01:08.132Z,33.50
2023-01-09T01:03:35.337Z,34.60
2023-01-09T01:06:20.103Z,32.80
2023-01-09T01:08:47.649Z,32.30
2023-01-09T01:11:15.539Z,34.60
2023-01-09T01:13:44.021Z,33.50
2023-01-09T01:16:12.946Z,33.50
2023-01-09T01:18:40.411Z,33.50
2023-01-09T01:21:10.697Z,33.20
2023-01-09T01:23:39.194Z,33.20
2023-01-09T01:26:10.125Z,33.10
2023-01-09T01:28:37.506Z,34.80
2023-01-09T01:31:05.209Z,34.70
2023-01-09T01:33:32.696Z,34.60
2023-01-09T01:36:09.051Z,35.10
2023-01-09T01:38:37.139Z,34.60
2023-01-09T01:41:04.892Z,33.60
2023-01-09T01:43:51.995Z,34.30
2023-01-09T01:46:20.459Z,34.10
2023-01-09T01:48:49.428Z,33.70
2023-01-09T01:51:19.312Z,33.30
2023-01-09T01:53:50.468Z,34.40
2023-01-09T01:56:21.825Z,34.50
2023-01-09T01:58:51.477Z,33.30
2023-01-09T02:01:19.670Z,34.00
2023-01-09T02:03:47.704Z,34.60
2023-01-09T02:06:16.249Z,35.30
2023-01-09T02:08:43.880Z,33.50
2023-01-09T02:11:13.186Z,35.50
2023-01-09T02:13:41.032Z,35.90
2023-01-09T02:16:23.813Z,34.30
2023-01-09T02:18:55.523Z,34.50
2023-01-09T02:21:35.120Z,34.10
2023-01-09T02:24:37.676Z,34.10
2023-01-09T02:27:20.221Z,35.30
2023-01-09T02:30:23.348Z,34.50
2023-01-09T02:33:05.547Z,34.50
2023-01-09T02:35:48.913Z,36.30
2023-01-09T02:38:24.867Z,35.10
2023-01-09T02:41:00.021Z,37.40
2023-01-09T02:43:27.654Z,36.30
2023-01-09T02:45:54.816Z,36.10
2023-01-09T02:48:21.875Z,36.40
2023-01-09T02:50:58.964Z,36.50
2023-01-09T02:54:03.263Z,36.90
2023-01-09T02:56:51.235Z,35.70
2023-01-09T02:59:30.737Z,36.00
2023-01-09T03:02:15.064Z,36.70
2023-01-09T03:04:54.599Z,35.80
2023-01-09T03:07:29.236Z,36.50
2023-01-09T03:10:01.869Z,34.70
2023-01-09T03:12:32.819Z,34.60
2023-01-09T03:15:03.078Z,33.90
2023-01-09T03:17:36.086Z,34.70
2023-01-09T03:20:05.558Z,32.90
2023-01-09T03:22:32.577Z,33.30
2023-01-09T03:24:59.629Z,32.90
2023-01-09T03:27:27.068Z,33.50
2023-01-09T03:29:56.678Z,33.20
2023-01-09T03:32:23.713Z,32.40
2023-01-09T03:34:50.903Z,32.40
2023-01-09T03:37:17.859Z,32.20
2023-01-09T03:39:44.909Z,33.10
2023-01-09T03:42:12.238Z,32.50
2023-01-09T03:44:39.191Z,30.60
2023-01-09T03:47:06.225Z,30.00
2023-01-09T03:49:33.304Z,29.80
2023-01-09T03:52:00.768Z,30.00
2023-01-09T03:54:28.051Z,30.40
2023-01-09T03:56:55.161Z,30.60
2023-01-09T03:59:22.279Z,30.30
2023-01-09T04:01:49.377Z,30.80
2023-01-09T04:04:16.749Z,29.40
2023-01-09T04:06:43.727Z,29.40
2023-01-09T04:09:11.449Z,27.80
2023-01-09T04:11:38.516Z,30.00
2023-01-09T04:14:05.828Z,28.90
2023-01-09T04:16:32.922Z,28.50
2023-01-09T04:19:00.796Z,30.90
2023-01-09T04:21:28.018Z,29.40
2023-01-09T04:23:55.412Z,30.30
2023-01-09T04:26:22.710Z,28.80
2023-01-09T04:28:50.410Z,29.80
2023-01-09T04:31:17.699Z,30.20
2023-01-09T04:33:44.776Z,29.90
2023-01-09T04:36:12.749Z,30.00
2023-01-09T04:38:39.886Z,28.20
2023-01-09T04:41:07.140Z,29.70
2023-01-09T04:43:34.112Z,29.10
2023-01-09T04:46:01.224Z,28.80
2023-01-09T04:48:28.401Z,28.30
2023-01-09T04:50:55.442Z,28.80
2023-01-09T04:53:22.608Z,30.90
2023-01-09T04:55:49.971Z,29.90
2023-01-09T04:58:16.881Z,29.40
2023-01-09T05:00:44.497Z,29.20
2023-01-09T05:03:11.768Z,29.90
2023-01-09T05:05:38.761Z,28.60
2023-01-09T05:08:06.073Z,28.50
2023-01-09T05:10:33.319Z,29.10
2023-01-09T05:13:00.330Z,28.70
2023-01-09T05:15:28.450Z,27.90
2023-01-09T05:17:55.629Z,29.20
2023-01-09T05:20:22.612Z,27.50
2023-01-09T05:22:49.595Z,29.30
2023-01-09T05:25:16.892Z,29.70
2023-01-09T05:27:46.374Z,27.80
2023-01-09T05:30:18.151Z,27.90
2023-01-09T05:32:45.528Z,28.10
2023-01-09T05:35:13.133Z,28.80
2023-01-09T05:37:40.237Z,28.40
2023-01-09T05:40:08.862Z,29.00
2023-01-09T05:42:35.980Z,29.80
2023-01-09T05:45:03.391Z,29.20
2023-01-09T05:47:30.878Z,28.70
2023-01-09T05:49:58.003Z,27.60
2023-01-09T05:52:25.233Z,26.10
2023-01-09T05:54:52.645Z,30.00
2023-01-09T05:57:19.776Z,28.50
2023-01-09T05:59:46.937Z,27.70
2023-01-09T06:02:17.049Z,27.10
2023-01-09T06:04:44.683Z,26.40
2023-01-09T06:07:15.446Z,25.60
2023-01-09T06:09:45.484Z,27.40
2023-01-09T06:12:12.613Z,26.90
2023-01-09T06:14:39.575Z,27.70
2023-01-09T06:17:07.546Z,26.60
2023-01-09T06:19:34.525Z,28.80
2023-01-09T06:22:01.488Z,28.00
2023-01-09T06:24:28.626Z,26.90
2023-01-09T06:26:55.586Z,26.40
2023-01-09T06:29:22.850Z,27.00
2023-01-09T06:31:50.417Z,28.30
2023-01-09T06:34:17.609Z,27.00
2023-01-09T06:36:44.688Z,26.80
2023-01-09T06:39:14.142Z,27.60
2023-01-09T06:41:41.241Z,26.10
2023-01-09T06:44:08.237Z,26.40
2023-01-09T06:46:35.205Z,26.70
2023-01-09T06:49:02.309Z,26.30
2023-01-09T06:51:29.274Z,26.10
2023-01-09T06:53:56.379Z,26.30
2023-01-09T06:56:24.007Z,26.40
2023-01-09T06:58:51.316Z,24.70
2023-01-09T07:01:18.606Z,24.70
2023-01-09T07:03:45.980Z,25.50
2023-01-09T07:06:13.106Z,24.90
2023-01-09T07:08:40.404Z,25.10
2023-01-09T07:11:07.780Z,25.60
2023-01-09T07:13:34.721Z,25.10
2023-01-09T07:16:03.446Z,26.30
2023-01-09T07:18:30.586Z,26.30
2023-01-09T07:20:57.749Z,25.10
2023-01-09T07:23:24.880Z,24.20
2023-01-09T07:25:53.910Z,24.10
2023-01-09T07:28:20.928Z,23.40
2023-01-09T07:30:48.236Z,23.70
2023-01-09T07:33:15.332Z,23.40
2023-01-09T07:35:42.687Z,23.10
2023-01-09T07:38:10.123Z,23.30
2023-01-09T07:40:37.161Z,22.20
2023-01-09T07:43:04.378Z,22.30
2023-01-09T07:45:31.461Z,22.80
2023-01-09T07:47:59.913Z,22.20
2023-01-09T07:50:27.197Z,23.30
2023-01-09T07:52:54.312Z,22.70
2023-01-09T07:55:21.467Z,22.50
2023-01-09T07:57:52.341Z,22.40
2023-01-09T08:00:21.753Z,22.50
2023-01-09T08:02:52.024Z,22.30
2023-01-09T08:05:20.239Z,21.70
2023-01-09T08:07:50.215Z,23.70
2023-01-09T08:10:19.995Z,23.40
2023-01-09T08:12:47.874Z,22.30
2023-01-09T08:15:15.792Z,23.00
2023-01-09T08:17:44.993Z,21.80
2023-01-09T08:20:15.948Z,22.10
2023-01-09T08:22:43.991Z,22.90
2023-01-09T08:25:12.928Z,23.80
2023-01-09T08:27:40.560Z,23.20
2023-01-09T08:30:09.861Z,23.70
2023-01-09T08:32:38.413Z,22.30
2023-01-09T08:35:06.206Z,21.80
2023-01-09T08:37:33.321Z,22.50
2023-01-09T08:40:00.614Z,21.80
2023-01-09T08:42:45.440Z,20.20
2023-01-09T08:45:33.324Z,21.40
2023-01-09T08:48:00.689Z,21.60
2023-01-09T08:50:28.005Z,20.30
2023-01-09T08:52:55.078Z,20.30
2023-01-09T08:55:22.095Z,20.40
2023-01-09T08:57:53.287Z,19.70
2023-01-09T09:00:22.762Z,20.80
2023-01-09T09:02:54.104Z,21.10
2023-01-09T09:05:22.889Z,20.70
2023-01-09T09:07:54.240Z,20.40
2023-01-09T09:10:22.026Z,20.00
2023-01-09T09:12:52.115Z,20.20
2023-01-09T09:15:24.231Z,19.80
2023-01-09T09:17:53.743Z,20.40
2023-01-09T09:20:21.731Z,20.60
2023-01-09T09:22:50.533Z,21.10
2023-01-09T09:25:18.394Z,21.50
2023-01-09T09:27:45.948Z,20.90
2023-01-09T09:30:16.100Z,20.20
2023-01-09T09:32:43.375Z,21.30
2023-01-09T09:35:11.260Z,21.10
2023-01-09T09:37:39.362Z,22.50
2023-01-09T09:40:17.828Z,22.50
2023-01-09T09:43:23.116Z,21.10
2023-01-09T09:45:58.959Z,20.50
2023-01-09T09:48:37.864Z,20.70
2023-01-09T09:51:28.819Z,21.40
2023-01-09T09:54:01.608Z,21.40
2023-01-09T09:56:32.027Z,21.90
2023-01-09T09:59:04.402Z,21.90
2023-01-09T10:01:37.885Z,22.50
2023-01-09T10:04:10.899Z,21.50
2023-01-09T10:06:43.524Z,21.60
2023-01-09T10:09:18.671Z,21.40
2023-01-09T10:11:53.106Z,22.00
2023-01-09T10:14:24.433Z,21.60
2023-01-09T10:17:06.780Z,21.10
2023-01-09T10:19:50.052Z,21.90
2023-01-09T10:22:26.261Z,22.00
2023-01-09T10:25:12.788Z,21.90
2023-01-09T10:27:55.205Z,22.70
2023-01-09T10:30:34.078Z,21.50
2023-01-09T10:33:15.041Z,21.60
2023-01-09T10:35:54.183Z,23.50
2023-01-09T10:38:25.746Z,23.70
2023-01-09T10:41:01.434Z,21.70
2023-01-09T10:43:35.822Z,23.30
2023-01-09T10:46:07.222Z,23.20
2023-01-09T10:48:36.597Z,24.30
2023-01-09T10:51:05.044Z,22.60
2023-01-09T10:53:38.908Z,23.50
2023-01-09T10:56:14.698Z,23.70
2023-01-09T10:58:42.647Z,25.30
2023-01-09T11:01:10.568Z,24.40
2023-01-09T11:03:39.105Z,23.80
2023-01-09T11:06:16.084Z,23.30
2023-01-09T11:08:46.537Z,23.60
2023-01-09T11:11:16.494Z,26.70
2023-01-09T11:13:48.742Z,24.60
2023-01-09T11:16:22.150Z,25.00
2023-01-09T11:18:55.692Z,24.10
2023-01-09T11:21:38.326Z,24.40
2023-01-09T11:24:34.241Z,24.70
2023-01-09T11:27:23.931Z,24.50
2023-01-09T11:30:08.550Z,26.30
2023-01-09T11:32:36.780Z,24.90
2023-01-09T11:35:05.899Z,26.20
2023-01-09T11:37:34.290Z,25.60
2023-01-09T11:40:02.733Z,25.90
2023-01-09T11:42:48.031Z,26.70
2023-01-09T11:45:20.741Z,26.00
2023-01-09T11:47:48.740Z,25.50
2023-01-09T11:50:26.122Z,26.70
2023-01-09T11:53:16.234Z,26.30
2023-01-09T11:55:45.044Z,26.40
2023-01-09T11:58:16.494Z,25.90
2023-01-09T12:00:54.091Z,27.10
2023-01-09T12:03:39.280Z,27.00
2023-01-09T12:06:14.319Z,27.70
2023-01-09T12:08:56.717Z,28.50
2023-01-09T12:11:35.237Z,27.40
2023-01-09T12:14:20.685Z,27.30
2023-01-09T12:17:04.525Z,27.70
2023-01-09T12:19:55.849Z,29.10
2023-01-09T12:22:33.462Z,28.80
2023-01-09T12:25:23.088Z,28.60
2023-01-09T12:28:04.829Z,29.90
2023-01-09T12:30:52.204Z,29.30
2023-01-09T12:36:09.480Z,28.70
2023-01-09T12:38:49.336Z,28.50
2023-01-09T12:41:44.606Z,29.10
2023-01-09T12:44:51.652Z,29.30
2023-01-09T12:47:40.071Z,31.20
2023-01-09T12:50:20.181Z,30.60
2023-01-09T12:52:55.226Z,30.30
2023-01-09T12:55:26.818Z,30.20
2023-01-09T12:57:57.308Z,30.00
2023-01-09T13:00:30.243Z,29.30
2023-01-09T13:03:12.120Z,30.10
2023-01-09T13:05:45.659Z,30.20
2023-01-09T13:08:19.553Z,32.30
2023-01-09T13:10:50.018Z,32.30
2023-01-09T13:13:21.870Z,32.50
2023-01-09T13:15:52.441Z,33.30
2023-01-09T13:18:28.833Z,32.40
2023-01-09T13:20:57.129Z,32.90
2023-01-09T13:23:31.676Z,33.10
2023-01-09T13:26:03.773Z,33.40
2023-01-09T13:28:33.511Z,32.80
2023-01-09T13:31:28.540Z,32.10
2023-01-09T13:33:58.814Z,32.10
2023-01-09T13:36:30.180Z,32.20
2023-01-09T13:39:00.091Z,32.60
2023-01-09T13:41:45.987Z,31.10
2023-01-09T13:44:28.610Z,31.40
2023-01-09T13:46:57.948Z,32.20
2023-01-09T13:50:06.914Z,31.60
2023-01-09T13:52:38.032Z,31.10
2023-01-09T13:55:20.366Z,30.60
2023-01-09T13:58:15.097Z,30.50
2023-01-09T14:00:56.820Z,30.20
2023-01-09T14:03:27.684Z,30.30
2023-01-09T14:06:17.569Z,31.70
2023-01-09T14:08:45.915Z,32.00
2023-01-09T14:11:21.916Z,31.20
2023-01-09T14:13:55.220Z,29.20
2023-01-09T14:16:27.386Z,33.20
2023-01-09T14:19:00.128Z,33.00
2023-01-09T14:21:27.629Z,30.50
2023-01-09T14:24:04.411Z,30.90
2023-01-09T14:26:48.340Z,29.30
2023-01-09T14:29:41.061Z,30.80
2023-01-09T14:32:43.483Z,30.30
2023-01-09T14:35:24.355Z,30.80
2023-01-09T14:38:02.764Z,30.30
2023-01-09T14:40:31.991Z,30.10
2023-01-09T14:43:06.457Z,31.30
2023-01-09T14:45:36.923Z,31.30
2023-01-09T14:48:10.072Z,31.30
2023-01-09T14:50:45.333Z,31.70
2023-01-09T14:53:18.241Z,30.00
2023-01-09T14:55:54.372Z,31.90
2023-01-09T14:58:27.149Z,30.50
2023-01-09T15:01:01.367Z,30.80
2023-01-09T15:03:34.490Z,29.40
2023-01-09T15:06:02.495Z,32.10
2023-01-09T15:08:30.743Z,31.40
2023-01-09T15:11:00.457Z,32.50
2023-01-09T15:13:33.814Z,31.70
2023-01-09T15:16:02.453Z,31.10
2023-01-09T15:18:33.944Z,31.30
2023-01-09T15:21:04.118Z,31.00
2023-01-09T15:23:32.728Z,30.60
2023-01-09T15:26:13.494Z,30.60
2023-01-09T15:28:45.094Z,30.70
2023-01-09T15:31:17.320Z,30.10
2023-01-09T15:33:46.031Z,30.30
2023-01-09T15:36:18.262Z,30.90
2023-01-09T15:38:46.859Z,31.60
2023-01-09T15:41:32.181Z,30.60
2023-01-09T15:43:59.463Z,31.00
2023-01-09T15:46:27.344Z,30.90
2023-01-09T15:48:57.785Z,29.80
2023-01-09T15:51:25.639Z,31.70
2023-01-09T15:53:53.956Z,29.70
2023-01-09T15:56:25.214Z,29.80
2023-01-09T15:58:53.466Z,30.30
2023-01-09T16:01:31.623Z,29.50
2023-01-09T16:04:06.604Z,30.70
2023-01-09T16:06:37.241Z,30.40
2023-01-09T16:09:05.833Z,31.70
2023-01-09T16:11:35.303Z,31.00
2023-01-09T16:14:14.394Z,31.50
2023-01-09T16:16:42.635Z,32.80
2023-01-09T16:19:34.135Z,31.80
2023-01-09T16:22:03.009Z,32.10
2023-01-09T16:24:36.948Z,32.10
2023-01-09T16:27:31.153Z,31.40
2023-01-09T16:30:00.060Z,31.90
2023-01-09T16:32:31.810Z,33.90
2023-01-09T16:35:00.820Z,32.90
2023-01-09T16:37:29.625Z,31.60
2023-01-09T16:40:26.698Z,32.60
2023-01-09T16:43:01.825Z,31.50
2023-01-09T16:45:31.189Z,30.70
2023-01-09T16:47:58.521Z,31.30
2023-01-09T16:50:26.860Z,31.40
2023-01-09T16:52:54.403Z,32.10
2023-01-09T16:55:24.457Z,31.10
2023-01-09T16:57:53.027Z,31.60
2023-01-09T17:00:23.758Z,32.30
2023-01-09T17:02:50.777Z,32.40
2023-01-09T17:05:18.030Z,30.00
2023-01-09T17:07:45.557Z,31.40
2023-01-09T17:10:22.807Z,33.40
2023-01-09T17:12:49.998Z,32.20
2023-01-09T17:15:17.945Z,31.70
2023-01-09T17:17:44.980Z,32.40
2023-01-09T17:20:20.600Z,33.50
2023-01-09T17:22:47.935Z,31.70
2023-01-09T17:25:35.615Z,32.70
2023-01-09T17:28:20.776Z,33.10
2023-01-09T17:30:48.309Z,33.90
2023-01-09T17:33:18.591Z,34.20
2023-01-09T17:35:45.838Z,35.90
2023-01-09T17:38:16.280Z,35.10
2023-01-09T17:40:44.610Z,33.80
2023-01-09T17:43:12.084Z,32.50
2023-01-09T17:45:41.603Z,34.80
2023-01-09T17:48:12.898Z,33.20
2023-01-09T17:50:40.207Z,33.70
2023-01-09T17:53:07.447Z,32.60
2023-01-09T17:55:34.885Z,33.20
2023-01-09T17:58:02.393Z,31.30
2023-01-09T18:00:32.934Z,31.50
2023-01-09T18:03:00.215Z,33.30
2023-01-09T18:05:28.418Z,33.30
2023-01-09T18:07:57.975Z,32.90
2023-01-09T18:10:28.354Z,33.70
2023-01-09T18:12:57.335Z,32.30
2023-01-09T18:15:24.962Z,31.50
2023-01-09T18:17:52.512Z,32.70
2023-01-09T18:20:19.793Z,31.20
2023-01-09T18:22:47.761Z,31.60
2023-01-09T18:25:15.174Z,30.90
2023-01-09T18:27:42.159Z,32.70
2023-01-09T18:30:12.586Z,31.40
2023-01-09T18:32:39.922Z,33.90
2023-01-09T18:35:08.961Z,30.80
2023-01-09T18:37:38.657Z,30.00
2023-01-09T18:40:08.987Z,29.10
2023-01-09T18:42:36.041Z,28.50
2023-01-09T18:45:03.162Z,28.80
2023-01-09T18:47:30.319Z,29.00
2023-01-09T18:49:57.887Z,27.10
2023-01-09T18:52:25.156Z,27.30
2023-01-09T18:54:52.433Z,28.60
2023-01-09T18:57:19.418Z,27.90
2023-01-09T18:59:46.757Z,27.80
2023-01-09T19:02:22.031Z,27.00
2023-01-09T19:04:49.478Z,26.70
2023-01-09T19:07:16.928Z,25.90
2023-01-09T19:09:44.157Z,25.60
2023-01-09T19:12:11.413Z,26.80
2023-01-09T19:14:38.569Z,25.40
2023-01-09T19:17:06.337Z,26.50
2023-01-09T19:19:35.061Z,24.40
2023-01-09T19:22:02.167Z,24.40
2023-01-09T19:24:30.570Z,25.60
2023-01-09T19:26:57.990Z,25.80
2023-01-09T19:29:25.233Z,25.40
2023-01-09T19:31:53.411Z,27.30
2023-01-09T19:34:21.000Z,27.80
2023-01-09T19:36:48.907Z,27.30
2023-01-09T19:39:16.671Z,27.60
2023-01-09T19:41:44.273Z,27.10
2023-01-09T19:44:12.052Z,28.40
2023-01-09T19:46:39.117Z,28.10
2023-01-09T19:49:06.555Z,27.50
2023-01-09T19:51:35.038Z,26.70
2023-01-09T19:56:29.827Z,26.20
2023-01-09T19:58:58.021Z,26.10
2023-01-09T20:01:27.103Z,24.80
2023-01-09T20:03:56.621Z,23.60
2023-01-09T20:06:25.670Z,24.20
2023-01-09T20:08:55.397Z,23.60
2023-01-09T20:11:23.217Z,24.00
2023-01-09T20:13:51.091Z,25.50
2023-01-09T20:16:21.304Z,26.80
2023-01-09T20:18:49.059Z,29.70
2023-01-09T20:21:22.268Z,30.10
2023-01-09T20:23:51.431Z,29.80
2023-01-09T20:26:18.999Z,31.00
2023-01-09T20:28:46.962Z,31.70
2023-01-09T20:31:16.308Z,30.10
2023-01-09T20:33:44.461Z,29.80
2023-01-09T20:36:12.403Z,30.70
2023-01-09T20:38:41.390Z,29.30
2023-01-09T20:41:22.902Z,29.50
2023-01-09T20:43:50.448Z,30.30
2023-01-09T20:46:17.951Z,28.00
2023-01-09T20:48:46.014Z,29.50
2023-01-09T20:51:13.663Z,29.70
2023-01-09T20:53:44.655Z,29.50
2023-01-09T20:56:12.562Z,28.90
2023-01-09T20:58:39.827Z,28.60
2023-01-09T21:01:10.824Z,29.10
2023-01-09T21:03:38.644Z,28.70
2023-01-09T21:06:09.520Z,28.00
2023-01-09T21:08:37.395Z,28.30
2023-01-09T21:11:05.674Z,30.20
2023-01-09T21:13:33.441Z,30.00
2023-01-09T21:16:05.627Z,28.00
2023-01-09T21:18:36.364Z,27.70
2023-01-09T21:21:08.138Z,29.30
2023-01-09T21:23:35.540Z,29.40
2023-01-09T21:26:03.074Z,29.10
2023-01-09T21:28:31.836Z,30.20
2023-01-09T21:30:58.902Z,29.90
2023-01-09T21:33:26.137Z,29.80
2023-01-09T21:35:59.074Z,30.50
2023-01-09T21:38:27.930Z,31.40
2023-01-09T21:40:55.513Z,30.40
2023-01-09T21:43:56.295Z,31.10
2023-01-09T21:46:41.173Z,31.50
2023-01-09T21:49:08.684Z,31.70
2023-01-09T21:51:38.918Z,29.90
2023-01-09T21:54:06.351Z,31.80
2023-01-09T21:56:33.723Z,33.40
2023-01-09T21:59:01.054Z,32.20
2023-01-09T22:01:28.224Z,33.60
2023-01-09T22:03:58.337Z,34.50
2023-01-09T22:06:26.827Z,33.60
2023-01-09T22:08:54.311Z,33.20
2023-01-09T22:11:21.928Z,34.30
2023-01-09T22:13:50.851Z,35.10
2023-01-09T22:16:18.995Z,34.90
2023-01-09T22:18:46.482Z,34.60
2023-01-09T22:21:14.216Z,35.50
2023-01-09T22:23:41.229Z,33.70
2023-01-09T22:26:13.063Z,35.50
2023-01-09T22:28:40.449Z,34.20
2023-01-09T22:31:11.032Z,33.80
2023-01-09T22:33:38.373Z,34.10
2023-01-09T22:36:10.249Z,34.90
2023-01-09T22:38:37.496Z,34.90
2023-01-09T22:41:04.697Z,32.30
2023-01-09T22:43:32.648Z,33.90
2023-01-09T22:46:03.218Z,31.60
2023-01-09T22:48:31.866Z,33.00
2023-01-09T22:51:01.984Z,33.30
2023-01-09T22:53:29.430Z,32.50
2023-01-09T22:55:59.828Z,32.90
2023-01-09T22:58:27.407Z,32.30
2023-01-09T23:00:54.948Z,32.20
2023-01-09T23:03:22.209Z,32.60
2023-01-09T23:05:49.957Z,30.90
2023-01-09T23:08:17.588Z,32.50
2023-01-09T23:10:45.095Z,32.90
2023-01-09T23:13:12.408Z,32.20
2023-01-09T23:15:39.365Z,31.50
2023-01-09T23:18:07.845Z,32.70
2023-01-09T23:20:34.850Z,31.50
2023-01-09T23:23:01.850Z,31.70
2023-01-09T23:25:28.946Z,32.40
2023-01-09T23:27:56.118Z,32.10
2023-01-09T23:30:23.109Z,30.90
2023-01-09T23:32:50.201Z,31.60
2023-01-09T23:35:17.846Z,30.80
2023-01-09T23:37:44.893Z,31.80
2023-01-09T23:40:13.665Z,32.00
2023-01-09T23:42:58.650Z,32.00
2023-01-09T23:45:25.912Z,31.00
2023-01-09T23:47:52.943Z,32.70
2023-01-09T23:50:20.399Z,33.50
2023-01-09T23:52:47.433Z,31.90
2023-01-09T23:55:14.927Z,32.80
2023-01-09T23:57:41.920Z,33.10
